createdAt,value
2019-03-31T00:01:56.816Z,9.97
2019-03-31T00:04:27.670Z,10.12
2019-03-31T00:07:00.142Z,10.20
2019-03-31T00:09:30.963Z,10.21
2019-03-31T00:12:03.071Z,10.26
2019-03-31T00:14:34.239Z,10.14
2019-03-31T00:17:05.261Z,10.07
2019-03-31T00:19:36.383Z,10.08
2019-03-31T00:22:07.239Z,10.11
2019-03-31T00:24:38.089Z,10.13
2019-03-31T00:27:09.238Z,10.11
2019-03-31T00:29:40.255Z,10.16
2019-03-31T00:32:11.068Z,10.16
2019-03-31T00:34:42.159Z,10.09
2019-03-31T00:37:12.971Z,10.03
2019-03-31T00:39:45.021Z,9.99
2019-03-31T00:42:16.250Z,10.02
2019-03-31T00:44:48.432Z,10.10
2019-03-31T00:47:19.601Z,10.10
2019-03-31T00:49:51.202Z,10.06
2019-03-31T00:52:22.052Z,10.09
2019-03-31T00:54:53.008Z,10.19
2019-03-31T00:57:24.121Z,10.41
2019-03-31T00:59:55.101Z,10.41
2019-03-31T01:02:29.343Z,10.52
2019-03-31T01:05:00.657Z,10.62
2019-03-31T01:07:33.027Z,10.68
2019-03-31T01:10:05.134Z,10.73
2019-03-31T01:12:37.018Z,10.74
2019-03-31T01:15:13.807Z,10.75
2019-03-31T01:17:45.088Z,10.77
2019-03-31T01:20:16.537Z,10.77
2019-03-31T01:22:50.140Z,10.81
2019-03-31T01:25:21.020Z,10.81
2019-03-31T01:27:53.291Z,10.80
2019-03-31T01:30:25.038Z,10.75
2019-03-31T01:32:57.425Z,10.74
2019-03-31T01:35:28.862Z,10.72
2019-03-31T01:38:02.342Z,10.67
2019-03-31T01:40:33.256Z,10.61
2019-03-31T01:43:06.383Z,10.55
2019-03-31T01:45:37.570Z,10.49
2019-03-31T01:48:08.697Z,10.49
2019-03-31T01:50:39.615Z,10.52
2019-03-31T01:53:10.419Z,10.49
2019-03-31T01:55:41.363Z,10.40
2019-03-31T01:58:12.276Z,10.23
2019-03-31T02:00:46.678Z,10.01
2019-03-31T02:03:17.687Z,9.83
2019-03-31T02:05:48.580Z,9.83
2019-03-31T02:08:19.450Z,9.79
2019-03-31T02:10:50.595Z,9.90
2019-03-31T02:13:21.544Z,10.00
2019-03-31T02:15:52.858Z,10.05
2019-03-31T02:18:23.786Z,10.09
2019-03-31T02:20:58.361Z,10.18
2019-03-31T02:23:29.296Z,10.27
2019-03-31T02:26:00.420Z,10.34
2019-03-31T02:28:31.237Z,10.42
2019-03-31T02:31:03.085Z,10.40
2019-03-31T02:33:34.074Z,10.30
2019-03-31T02:36:05.831Z,10.03
2019-03-31T02:38:36.670Z,10.03
2019-03-31T02:41:07.524Z,9.90
2019-03-31T02:43:38.661Z,9.73
2019-03-31T02:46:09.482Z,9.64
2019-03-31T02:48:40.492Z,9.58
2019-03-31T02:51:11.379Z,9.49
2019-03-31T02:53:43.516Z,9.31
2019-03-31T02:56:17.114Z,9.31
2019-03-31T02:58:48.777Z,9.29
2019-03-31T03:01:20.593Z,9.31
2019-03-31T03:03:53.371Z,9.36
2019-03-31T03:06:28.368Z,9.49
2019-03-31T03:09:02.232Z,9.66
2019-03-31T03:11:35.002Z,9.71
2019-03-31T03:14:07.048Z,9.73
2019-03-31T03:16:38.142Z,9.70
2019-03-31T03:19:08.974Z,9.58
2019-03-31T03:21:39.822Z,9.48
2019-03-31T03:24:10.695Z,9.38
2019-03-31T03:26:41.551Z,9.31
2019-03-31T03:29:12.420Z,9.20
2019-03-31T03:31:43.701Z,9.14
2019-03-31T03:34:14.606Z,9.15
2019-03-31T03:36:45.423Z,9.21
2019-03-31T03:39:16.605Z,9.27
2019-03-31T03:41:47.443Z,9.29
2019-03-31T03:44:19.975Z,9.30
2019-03-31T03:46:50.831Z,9.34
2019-03-31T03:49:21.674Z,9.38
2019-03-31T03:51:52.526Z,9.42
2019-03-31T03:54:23.664Z,9.41
2019-03-31T03:56:55.101Z,9.43
2019-03-31T03:59:27.309Z,9.46
2019-03-31T04:01:59.320Z,9.39
2019-03-31T04:04:30.171Z,9.30
2019-03-31T04:07:01.442Z,9.18
2019-03-31T04:09:32.380Z,9.07
2019-03-31T04:12:03.767Z,8.91
2019-03-31T04:14:34.631Z,8.91
2019-03-31T04:17:05.768Z,8.95
2019-03-31T04:19:36.683Z,9.04
2019-03-31T04:22:07.524Z,9.11
2019-03-31T04:24:38.639Z,9.09
2019-03-31T04:27:09.888Z,9.06
2019-03-31T04:29:40.719Z,9.02
2019-03-31T04:32:11.541Z,8.94
2019-03-31T04:34:42.664Z,8.90
2019-03-31T04:37:13.527Z,8.90
2019-03-31T04:39:44.434Z,8.88
2019-03-31T04:42:15.274Z,8.81
2019-03-31T04:44:46.543Z,8.72
2019-03-31T04:47:17.386Z,8.70
2019-03-31T04:49:48.776Z,8.72
2019-03-31T04:52:19.912Z,8.82
2019-03-31T04:54:51.933Z,8.82
2019-03-31T04:57:22.805Z,8.92
2019-03-31T04:59:54.637Z,8.98
2019-03-31T05:02:27.352Z,9.02
2019-03-31T05:04:59.490Z,9.02
2019-03-31T05:07:30.507Z,9.02
2019-03-31T05:10:01.367Z,9.05
2019-03-31T05:12:32.483Z,9.09
2019-03-31T05:15:03.331Z,9.18
2019-03-31T05:17:35.979Z,9.25
2019-03-31T05:20:07.456Z,9.35
2019-03-31T05:22:38.320Z,9.41
2019-03-31T05:25:09.164Z,9.41
2019-03-31T05:27:40.009Z,9.41
2019-03-31T05:30:11.061Z,9.42
2019-03-31T05:32:42.199Z,9.46
2019-03-31T05:35:13.291Z,9.52
2019-03-31T05:37:51.130Z,9.51
2019-03-31T05:40:17.432Z,9.53
2019-03-31T05:42:48.596Z,9.54
2019-03-31T05:45:19.475Z,9.56
2019-03-31T05:47:51.632Z,9.59
2019-03-31T05:50:22.727Z,9.64
2019-03-31T05:52:54.383Z,9.73
2019-03-31T05:55:25.261Z,9.73
2019-03-31T05:57:56.143Z,9.79
2019-03-31T06:00:53.896Z,9.83
2019-03-31T06:03:25.037Z,9.87
2019-03-31T06:05:56.104Z,9.92
2019-03-31T06:08:27.268Z,9.94
2019-03-31T06:10:58.612Z,9.95
2019-03-31T06:13:31.139Z,9.95
2019-03-31T06:16:01.959Z,9.94
2019-03-31T06:18:33.576Z,9.93
2019-03-31T06:21:05.602Z,9.92
2019-03-31T06:23:36.441Z,9.88
2019-03-31T06:26:07.423Z,9.75
2019-03-31T06:28:39.461Z,9.63
2019-03-31T06:31:10.634Z,9.46
2019-03-31T06:33:41.478Z,9.28
2019-03-31T06:36:12.623Z,9.13
2019-03-31T06:38:43.440Z,9.04
2019-03-31T06:41:14.367Z,8.95
2019-03-31T06:43:45.273Z,8.88
2019-03-31T06:46:16.474Z,8.84
2019-03-31T06:48:47.333Z,8.74
2019-03-31T06:51:20.720Z,8.61
2019-03-31T06:53:51.695Z,8.45
2019-03-31T06:56:22.579Z,8.33
2019-03-31T06:58:53.728Z,8.21
2019-03-31T07:01:24.882Z,8.10
2019-03-31T07:03:55.728Z,7.98
2019-03-31T07:06:27.381Z,7.88
2019-03-31T07:08:58.511Z,7.79
2019-03-31T07:11:29.797Z,7.72
2019-03-31T07:14:00.715Z,7.72
2019-03-31T07:16:31.593Z,7.67
2019-03-31T07:19:02.739Z,7.67
2019-03-31T07:21:33.791Z,7.67
2019-03-31T07:24:04.626Z,7.73
2019-03-31T07:26:35.971Z,7.76
2019-03-31T07:29:06.835Z,7.76
2019-03-31T07:31:37.927Z,7.76
2019-03-31T07:34:08.806Z,7.76
2019-03-31T07:36:39.860Z,7.82
2019-03-31T07:39:10.939Z,7.83
2019-03-31T07:41:42.276Z,7.85
2019-03-31T07:44:15.311Z,7.89
2019-03-31T07:46:46.187Z,7.87
2019-03-31T07:49:17.046Z,7.87
2019-03-31T07:51:49.887Z,7.93
2019-03-31T07:54:21.081Z,7.96
2019-03-31T07:56:53.162Z,8.00
2019-03-31T07:59:24.371Z,8.00
2019-03-31T08:01:55.164Z,7.96
2019-03-31T08:04:26.538Z,7.92
2019-03-31T08:06:57.733Z,7.90
2019-03-31T08:09:28.583Z,7.93
2019-03-31T08:11:59.630Z,7.95
2019-03-31T08:14:30.790Z,7.96
2019-03-31T08:17:01.994Z,8.02
2019-03-31T08:19:33.545Z,8.06
2019-03-31T08:22:04.695Z,8.09
2019-03-31T08:24:44.573Z,8.12
2019-03-31T08:27:16.536Z,8.10
2019-03-31T08:29:59.599Z,8.06
2019-03-31T08:32:20.902Z,8.08
2019-03-31T08:34:52.121Z,8.09
2019-03-31T08:37:22.977Z,8.09
2019-03-31T08:39:55.793Z,8.05
2019-03-31T08:42:26.680Z,8.08
2019-03-31T08:44:59.061Z,8.12
2019-03-31T08:47:30.319Z,8.17
2019-03-31T08:50:02.656Z,8.21
2019-03-31T08:52:33.931Z,8.25
2019-03-31T08:55:05.039Z,8.29
2019-03-31T08:57:36.025Z,8.36
2019-03-31T09:00:09.906Z,8.41
2019-03-31T09:02:40.876Z,8.47
2019-03-31T09:05:12.395Z,8.52
2019-03-31T09:07:44.690Z,8.57
2019-03-31T09:10:18.390Z,8.66
2019-03-31T09:12:49.516Z,8.71
2019-03-31T09:15:20.563Z,8.78
2019-03-31T09:17:54.195Z,8.85
2019-03-31T09:20:25.244Z,8.97
2019-03-31T09:22:56.424Z,9.12
2019-03-31T09:25:28.633Z,9.31
2019-03-31T09:28:01.096Z,9.43
2019-03-31T09:30:31.992Z,9.79
2019-03-31T09:33:04.466Z,9.79
2019-03-31T09:35:35.389Z,9.98
2019-03-31T09:38:06.579Z,10.16
2019-03-31T09:40:37.424Z,10.13
2019-03-31T09:43:08.432Z,10.24
2019-03-31T09:45:39.580Z,10.26
2019-03-31T09:48:12.632Z,10.42
2019-03-31T09:50:43.459Z,10.33
2019-03-31T09:53:14.593Z,10.30
2019-03-31T09:55:45.800Z,10.28
2019-03-31T09:58:16.689Z,10.39
2019-03-31T10:00:50.881Z,10.43
2019-03-31T10:03:23.036Z,10.79
2019-03-31T10:05:54.195Z,10.96
2019-03-31T10:08:25.439Z,11.36
2019-03-31T10:10:56.535Z,11.59
2019-03-31T10:13:27.416Z,11.43
2019-03-31T10:15:58.671Z,11.39
2019-03-31T10:18:29.681Z,11.60
2019-03-31T10:21:01.015Z,11.83
2019-03-31T10:23:32.181Z,11.62
2019-03-31T10:26:03.314Z,11.61
2019-03-31T10:28:34.286Z,11.49
2019-03-31T10:31:07.124Z,11.75
2019-03-31T10:33:38.001Z,12.48
2019-03-31T10:36:08.935Z,13.21
2019-03-31T10:38:42.361Z,12.82
2019-03-31T10:41:13.583Z,12.77
2019-03-31T10:43:44.725Z,12.89
2019-03-31T10:46:15.872Z,13.76
2019-03-31T10:48:48.328Z,15.98
2019-03-31T10:51:20.784Z,16.33
2019-03-31T10:53:53.380Z,18.23
2019-03-31T10:56:24.417Z,18.94
2019-03-31T10:58:55.581Z,18.85
2019-03-31T11:01:26.797Z,17.33
2019-03-31T11:03:57.993Z,16.81
2019-03-31T11:06:29.160Z,15.29
2019-03-31T11:09:00.403Z,14.77
2019-03-31T11:11:31.772Z,14.74
2019-03-31T11:14:04.417Z,15.66
2019-03-31T11:16:35.567Z,16.47
2019-03-31T11:19:06.633Z,16.92
2019-03-31T11:21:43.037Z,16.38
2019-03-31T11:24:15.856Z,16.25
2019-03-31T11:26:47.027Z,15.74
2019-03-31T11:29:18.161Z,14.95
2019-03-31T11:31:49.151Z,14.19
2019-03-31T11:34:20.353Z,14.31
2019-03-31T11:36:51.517Z,13.61
2019-03-31T11:39:22.436Z,13.61
2019-03-31T11:41:53.736Z,13.37
2019-03-31T11:44:27.552Z,13.66
2019-03-31T11:46:57.426Z,14.09
2019-03-31T11:49:29.430Z,14.13
2019-03-31T11:52:00.937Z,14.03
2019-03-31T11:54:32.140Z,13.81
2019-03-31T11:57:03.541Z,13.96
2019-03-31T11:59:34.548Z,13.78
2019-03-31T12:02:06.755Z,13.86
2019-03-31T12:04:37.673Z,13.63
2019-03-31T12:07:09.606Z,13.25
2019-03-31T12:09:40.797Z,13.25
2019-03-31T12:12:11.828Z,12.80
2019-03-31T12:14:42.733Z,13.08
2019-03-31T12:17:15.733Z,13.29
2019-03-31T12:19:48.804Z,13.44
2019-03-31T12:22:19.652Z,13.27
2019-03-31T12:24:50.511Z,13.33
2019-03-31T12:27:21.393Z,13.60
2019-03-31T12:29:53.869Z,13.43
2019-03-31T12:32:24.924Z,13.35
2019-03-31T12:34:55.880Z,13.32
2019-03-31T12:37:41.283Z,13.10
2019-03-31T12:39:59.788Z,12.72
2019-03-31T12:42:30.647Z,12.91
2019-03-31T12:45:01.859Z,12.95
2019-03-31T12:47:33.238Z,12.86
2019-03-31T12:50:04.651Z,12.76
2019-03-31T12:52:46.186Z,13.03
2019-03-31T12:55:08.525Z,13.25
2019-03-31T12:57:39.480Z,13.19
2019-03-31T13:00:10.528Z,13.29
2019-03-31T13:02:41.644Z,13.37
2019-03-31T13:05:13.729Z,13.35
2019-03-31T13:07:55.693Z,13.19
2019-03-31T13:10:17.786Z,13.07
2019-03-31T13:12:48.666Z,13.32
2019-03-31T13:15:19.911Z,13.52
2019-03-31T13:17:50.751Z,13.60
2019-03-31T13:20:22.019Z,13.96
2019-03-31T13:22:53.148Z,14.13
2019-03-31T13:25:24.334Z,14.20
2019-03-31T13:27:55.543Z,14.39
2019-03-31T13:30:26.734Z,14.66
2019-03-31T13:32:57.694Z,14.91
2019-03-31T13:35:28.846Z,14.35
2019-03-31T13:38:10.484Z,13.68
2019-03-31T13:40:33.436Z,13.73
2019-03-31T13:43:04.785Z,13.39
2019-03-31T13:45:35.714Z,13.12
2019-03-31T13:48:06.876Z,13.02
2019-03-31T13:50:37.913Z,12.94
2019-03-31T13:53:08.741Z,13.11
2019-03-31T13:55:39.853Z,13.40
2019-03-31T13:58:13.222Z,13.19
2019-03-31T14:00:43.732Z,12.99
2019-03-31T14:03:14.885Z,12.82
2019-03-31T14:05:46.698Z,12.77
2019-03-31T14:08:25.518Z,12.95
2019-03-31T14:10:50.882Z,13.16
2019-03-31T14:13:21.918Z,12.98
2019-03-31T14:15:53.080Z,13.31
2019-03-31T14:18:23.947Z,13.53
2019-03-31T14:20:54.888Z,13.17
2019-03-31T14:23:26.075Z,12.85
2019-03-31T14:25:57.003Z,12.74
2019-03-31T14:28:27.997Z,12.84
2019-03-31T14:30:58.847Z,12.87
2019-03-31T14:33:30.062Z,12.85
2019-03-31T14:36:00.976Z,12.88
2019-03-31T14:38:40.048Z,13.24
2019-03-31T14:41:04.504Z,13.49
2019-03-31T14:43:35.636Z,13.72
2019-03-31T14:46:07.182Z,13.61
2019-03-31T14:48:39.101Z,13.11
2019-03-31T14:51:09.975Z,12.53
2019-03-31T14:53:40.854Z,12.53
2019-03-31T14:56:11.727Z,12.49
2019-03-31T14:58:42.720Z,12.58
2019-03-31T15:01:13.552Z,12.50
2019-03-31T15:03:44.446Z,12.43
2019-03-31T15:06:15.837Z,12.28
2019-03-31T15:08:54.172Z,12.18
2019-03-31T15:11:21.951Z,12.07
2019-03-31T15:13:53.853Z,11.96
2019-03-31T15:16:26.856Z,11.88
2019-03-31T15:18:57.994Z,11.84
2019-03-31T15:21:28.839Z,11.68
2019-03-31T15:23:59.947Z,11.75
2019-03-31T15:26:30.842Z,11.91
2019-03-31T15:29:01.671Z,12.02
2019-03-31T15:31:32.805Z,12.07
2019-03-31T15:34:03.900Z,11.96
2019-03-31T15:36:34.852Z,11.98
2019-03-31T15:39:09.304Z,12.04
2019-03-31T15:41:40.943Z,11.85
2019-03-31T15:44:11.841Z,11.71
2019-03-31T15:46:42.765Z,11.73
2019-03-31T15:49:13.882Z,11.77
2019-03-31T15:51:44.742Z,11.78
2019-03-31T15:54:15.888Z,11.80
2019-03-31T15:56:46.926Z,11.86
2019-03-31T15:59:18.134Z,11.82
2019-03-31T16:01:49.301Z,11.70
2019-03-31T16:04:21.465Z,11.60
2019-03-31T16:06:52.531Z,11.65
2019-03-31T16:09:24.215Z,11.59
2019-03-31T16:11:54.890Z,11.60
2019-03-31T16:14:25.598Z,11.65
2019-03-31T16:16:55.970Z,11.61
2019-03-31T16:19:29.221Z,11.56
2019-03-31T16:21:59.566Z,11.53
2019-03-31T16:24:39.934Z,11.50
2019-03-31T16:27:10.324Z,11.52
2019-03-31T16:29:40.801Z,11.56
2019-03-31T16:32:11.127Z,11.53
2019-03-31T16:34:41.540Z,11.50
2019-03-31T16:37:12.210Z,11.45
2019-03-31T16:39:42.870Z,11.35
2019-03-31T16:42:13.230Z,11.24
2019-03-31T16:44:57.118Z,11.16
2019-03-31T16:47:16.884Z,11.14
2019-03-31T16:49:47.211Z,11.15
2019-03-31T16:52:18.299Z,11.17
2019-03-31T16:54:48.720Z,11.19
2019-03-31T16:57:20.241Z,11.18
2019-03-31T16:59:53.192Z,11.19
2019-03-31T17:02:23.543Z,11.19
2019-03-31T17:04:55.317Z,11.19
2019-03-31T17:07:25.769Z,11.22
2019-03-31T17:09:56.474Z,11.23
2019-03-31T17:12:27.149Z,11.20
2019-03-31T17:14:58.598Z,11.18
2019-03-31T17:17:29.255Z,11.14
2019-03-31T17:20:00.979Z,11.09
2019-03-31T17:22:31.664Z,11.06
2019-03-31T17:25:02.029Z,11.01
2019-03-31T17:27:32.646Z,10.96
2019-03-31T17:30:03.191Z,10.86
2019-03-31T17:32:34.030Z,10.79
2019-03-31T17:35:04.615Z,10.72
2019-03-31T17:37:35.012Z,10.68
2019-03-31T17:40:07.312Z,10.62
2019-03-31T17:42:39.293Z,10.59
2019-03-31T17:45:10.812Z,10.53
2019-03-31T17:47:41.182Z,10.45
2019-03-31T17:50:11.846Z,10.36
2019-03-31T17:52:42.170Z,10.32
2019-03-31T17:55:12.831Z,10.21
2019-03-31T17:57:43.238Z,10.09
2019-03-31T18:00:14.666Z,10.07
2019-03-31T18:02:45.106Z,10.03
2019-03-31T18:05:15.730Z,9.93
2019-03-31T18:07:46.555Z,9.82
2019-03-31T18:10:21.148Z,9.76
2019-03-31T18:12:51.827Z,9.63
2019-03-31T18:15:22.154Z,9.65
2019-03-31T18:17:54.696Z,9.56
2019-03-31T18:20:25.015Z,9.64
2019-03-31T18:22:56.494Z,9.63
2019-03-31T18:25:27.094Z,9.58
2019-03-31T18:27:57.855Z,9.49
2019-03-31T18:30:28.522Z,9.42
2019-03-31T18:32:58.901Z,9.44
2019-03-31T18:35:30.764Z,9.39
2019-03-31T18:38:01.262Z,9.33
2019-03-31T18:40:35.191Z,9.28
2019-03-31T18:43:04.704Z,9.36
2019-03-31T18:45:38.136Z,9.24
2019-03-31T18:48:08.611Z,9.10
2019-03-31T18:50:40.191Z,9.04
2019-03-31T18:53:12.479Z,9.04
2019-03-31T18:56:07.372Z,8.92
2019-03-31T18:59:02.055Z,8.86
2019-03-31T19:02:03.928Z,8.81
2019-03-31T19:04:56.405Z,8.86
2019-03-31T19:08:02.581Z,8.86
2019-03-31T19:11:08.775Z,8.84
2019-03-31T19:14:15.197Z,8.77
2019-03-31T19:16:56.167Z,8.74
2019-03-31T19:20:05.640Z,8.87
2019-03-31T19:22:50.949Z,8.78
2019-03-31T19:25:47.033Z,8.72
2019-03-31T19:28:53.067Z,8.75
2019-03-31T19:31:49.057Z,8.62
2019-03-31T19:34:41.234Z,8.60
2019-03-31T19:37:29.447Z,8.63
2019-03-31T19:40:17.972Z,8.58
2019-03-31T19:43:25.759Z,8.43
2019-03-31T19:46:18.061Z,8.44
2019-03-31T19:49:23.188Z,8.37
2019-03-31T19:52:12.218Z,8.28
2019-03-31T19:55:04.553Z,8.18
2019-03-31T19:57:52.463Z,8.15
2019-03-31T20:00:41.712Z,8.20
2019-03-31T20:03:30.000Z,8.21
2019-03-31T20:06:18.198Z,8.17
2019-03-31T20:08:57.372Z,8.25
2019-03-31T20:12:03.759Z,8.15
2019-03-31T20:14:54.247Z,8.03
2019-03-31T20:17:31.037Z,7.89
2019-03-31T20:20:19.358Z,8.13
2019-03-31T20:23:07.859Z,8.18
2019-03-31T20:25:51.347Z,8.09
2019-03-31T20:28:40.586Z,8.10
2019-03-31T20:31:18.614Z,8.10
2019-03-31T20:34:20.438Z,8.16
2019-03-31T20:37:12.550Z,8.13
2019-03-31T20:40:02.105Z,8.10
2019-03-31T20:42:40.697Z,8.24
2019-03-31T20:45:12.699Z,8.16
2019-03-31T20:47:43.023Z,8.18
2019-03-31T20:50:15.420Z,8.09
2019-03-31T20:52:45.794Z,7.86
2019-03-31T20:55:17.032Z,7.72
2019-03-31T20:57:47.726Z,7.61
2019-03-31T21:00:18.262Z,7.48
2019-03-31T21:02:48.746Z,7.36
2019-03-31T21:05:19.093Z,7.36
2019-03-31T21:07:51.563Z,7.42
2019-03-31T21:10:21.989Z,7.31
2019-03-31T21:12:52.403Z,7.33
2019-03-31T21:15:23.055Z,7.42
2019-03-31T21:17:53.381Z,7.47
2019-03-31T21:20:23.709Z,7.39
2019-03-31T21:22:54.439Z,7.24
2019-03-31T21:25:24.756Z,7.04
2019-03-31T21:27:55.149Z,6.96
2019-03-31T21:30:31.822Z,6.80
2019-03-31T21:33:03.754Z,6.82
2019-03-31T21:35:34.157Z,6.74
2019-03-31T21:38:11.437Z,6.86
2019-03-31T21:40:42.804Z,6.85
2019-03-31T21:43:15.904Z,6.71
2019-03-31T21:45:47.440Z,6.52
2019-03-31T21:48:22.510Z,6.42
2019-03-31T21:50:54.408Z,6.39
2019-03-31T21:53:25.088Z,6.44
2019-03-31T21:55:55.503Z,6.42
2019-03-31T21:58:26.149Z,6.32
2019-03-31T22:01:01.115Z,6.24
2019-03-31T22:03:31.745Z,6.26
2019-03-31T22:06:02.259Z,6.26
2019-03-31T22:08:32.906Z,6.41
2019-03-31T22:11:03.611Z,6.47
2019-03-31T22:13:33.977Z,6.43
2019-03-31T22:16:04.504Z,6.38
2019-03-31T22:18:34.986Z,6.28
2019-03-31T22:21:05.596Z,6.33
2019-03-31T22:23:36.086Z,6.23
2019-03-31T22:26:06.491Z,6.19
2019-03-31T22:28:36.916Z,6.12
2019-03-31T22:31:07.909Z,6.07
2019-03-31T22:33:38.569Z,6.10
2019-03-31T22:36:25.029Z,5.93
2019-03-31T22:38:55.631Z,5.76
2019-03-31T22:41:26.196Z,5.74
2019-03-31T22:43:56.603Z,5.70
2019-03-31T22:46:27.240Z,5.64
2019-03-31T22:48:58.122Z,5.54
2019-03-31T22:51:28.812Z,5.61
2019-03-31T22:54:02.024Z,5.58
2019-03-31T22:56:32.306Z,5.54
2019-03-31T22:59:02.771Z,5.44
2019-03-31T23:01:33.122Z,5.40
2019-03-31T23:04:03.529Z,5.26
2019-03-31T23:06:34.006Z,5.22
2019-03-31T23:09:05.933Z,5.14
2019-03-31T23:11:36.259Z,5.07
2019-03-31T23:14:06.590Z,5.11
2019-03-31T23:16:37.118Z,4.94
2019-03-31T23:19:09.075Z,4.94
2019-03-31T23:21:39.317Z,4.82
2019-03-31T23:24:09.714Z,4.83
2019-03-31T23:26:40.029Z,4.86
2019-03-31T23:29:10.369Z,4.84
2019-03-31T23:31:40.863Z,4.80
2019-03-31T23:34:12.163Z,4.81
2019-03-31T23:36:42.471Z,4.71
2019-03-31T23:39:13.094Z,4.70
2019-03-31T23:41:43.381Z,4.67
2019-03-31T23:44:14.542Z,4.70
2019-03-31T23:46:45.167Z,4.65
2019-03-31T23:49:16.777Z,4.54
2019-03-31T23:51:47.150Z,4.50
2019-03-31T23:54:17.709Z,4.48
2019-03-31T23:56:48.055Z,4.45
2019-03-31T23:59:19.945Z,4.39
